TimeEST,TemperatureF,Dew PointF,Humidity,Sea Level PressureIn,VisibilityMPH,Wind Direction,Wind SpeedMPH,Gust SpeedMPH,PrecipitationIn,Events,Conditions,WindDirDegrees,DateUTC
12:53 AM,30.0,25.0,82,30.27,10.0,Calm,Calm,-,N/A,,Clear,0,2012-12-12 05:53:00
1:53 AM,28.0,27.0,96,30.29,10.0,Calm,Calm,-,N/A,,Clear,0,2012-12-12 06:53:00
2:53 AM,28.9,25.0,85,30.31,10.0,Calm,Calm,-,N/A,,Clear,0,2012-12-12 07:53:00
3:53 AM,27.0,25.0,92,30.34,9.0,South,3.5,-,N/A,,Clear,180,2012-12-12 08:53:00
4:53 AM,28.9,24.1,82,30.35,10.0,Calm,Calm,-,N/A,,Clear,0,2012-12-12 09:53:00
5:53 AM,27.0,24.1,89,30.36,10.0,Calm,Calm,-,N/A,,Clear,0,2012-12-12 10:53:00
6:53 AM,28.0,24.1,85,30.39,10.0,Calm,Calm,-,N/A,,Clear,0,2012-12-12 11:53:00
7:53 AM,26.1,23.0,88,30.40,6.0,Calm,Calm,-,N/A,,Clear,0,2012-12-12 12:53:00
8:53 AM,28.0,26.1,92,30.43,7.0,Calm,Calm,-,N/A,,Clear,0,2012-12-12 13:53:00
9:53 AM,30.9,26.1,82,30.46,10.0,Calm,Calm,-,N/A,,Clear,0,2012-12-12 14:53:00
10:53 AM,35.1,26.1,70,30.45,10.0,Calm,Calm,-,N/A,,Clear,0,2012-12-12 15:53:00
11:53 AM,36.0,25.0,64,30.42,10.0,Calm,Calm,-,N/A,,Clear,0,2012-12-12 16:53:00
12:53 PM,37.9,25.0,60,30.41,10.0,Calm,Calm,-,N/A,,Clear,0,2012-12-12 17:53:00
1:53 PM,41.0,25.0,53,30.40,10.0,Calm,Calm,-,N/A,,Clear,0,2012-12-12 18:53:00
2:53 PM,39.9,23.0,51,30.39,10.0,Variable,3.5,-,N/A,,Clear,0,2012-12-12 19:53:00
3:53 PM,39.0,25.0,57,30.40,10.0,NE,3.5,-,N/A,,Clear,50,2012-12-12 20:53:00
4:53 PM,37.0,24.1,59,30.41,10.0,Calm,Calm,-,N/A,,Clear,0,2012-12-12 21:53:00
5:53 PM,35.1,23.0,61,30.43,10.0,Calm,Calm,-,N/A,,Clear,0,2012-12-12 22:53:00
6:53 PM,32.0,24.1,73,30.43,10.0,Calm,Calm,-,N/A,,Clear,0,2012-12-12 23:53:00
7:53 PM,32.0,24.1,73,30.43,10.0,Calm,Calm,-,N/A,,Clear,0,2012-12-13 00:53:00
8:53 PM,28.0,24.1,85,30.44,10.0,Calm,Calm,-,N/A,,Clear,0,2012-12-13 01:53:00
9:53 PM,28.0,24.1,85,30.45,10.0,Calm,Calm,-,N/A,,Clear,0,2012-12-13 02:53:00
10:53 PM,28.0,24.1,85,30.44,10.0,North,4.6,-,N/A,,Clear,10,2012-12-13 03:53:00
11:53 PM,27.0,24.1,89,30.43,8.0,Calm,Calm,-,N/A,,Clear,0,2012-12-13 04:53:00